sensor_id;sensor_type;location;lat;lon;timestamp;temperature;humidity
35591;DHT22;30355;50.556;10.012;2024-01-25T00:03:18;9.50;65.10
35591;DHT22;30355;50.556;10.012;2024-01-25T00:13:20;9.40;65.30
35591;DHT22;30355;50.556;10.012;2024-01-25T00:23:22;9.40;65.60
35591;DHT22;30355;50.556;10.012;2024-01-25T00:33:24;9.30;66.40
35591;DHT22;30355;50.556;10.012;2024-01-25T00:43:27;9.00;66.20
35591;DHT22;30355;50.556;10.012;2024-01-25T00:53:29;8.90;66.70
35591;DHT22;30355;50.556;10.012;2024-01-25T01:03:32;8.70;67.20
35591;DHT22;30355;50.556;10.012;2024-01-25T01:13:34;8.60;67.70
35591;DHT22;30355;50.556;10.012;2024-01-25T01:23:36;8.60;67.90
35591;DHT22;30355;50.556;10.012;2024-01-25T01:33:38;8.60;68.10
35591;DHT22;30355;50.556;10.012;2024-01-25T01:43:41;8.60;68.20
35591;DHT22;30355;50.556;10.012;2024-01-25T01:53:43;8.60;68.10
35591;DHT22;30355;50.556;10.012;2024-01-25T02:03:45;8.60;68.10
35591;DHT22;30355;50.556;10.012;2024-01-25T02:13:48;8.70;68.10
35591;DHT22;30355;50.556;10.012;2024-01-25T02:23:52;8.70;68.00
35591;DHT22;30355;50.556;10.012;2024-01-25T02:33:54;8.70;68.10
35591;DHT22;30355;50.556;10.012;2024-01-25T02:43:56;8.70;68.10
35591;DHT22;30355;50.556;10.012;2024-01-25T02:53:58;8.70;68.20
35591;DHT22;30355;50.556;10.012;2024-01-25T03:04:00;8.70;68.10
35591;DHT22;30355;50.556;10.012;2024-01-25T03:14:03;8.70;68.20
35591;DHT22;30355;50.556;10.012;2024-01-25T03:24:05;8.60;68.30
35591;DHT22;30355;50.556;10.012;2024-01-25T03:34:07;8.60;68.40
35591;DHT22;30355;50.556;10.012;2024-01-25T03:44:09;8.50;68.40
35591;DHT22;30355;50.556;10.012;2024-01-25T03:54:12;8.50;68.40
35591;DHT22;30355;50.556;10.012;2024-01-25T04:04:14;8.40;68.50
35591;DHT22;30355;50.556;10.012;2024-01-25T04:14:17;8.40;68.50
35591;DHT22;30355;50.556;10.012;2024-01-25T04:24:19;8.30;68.60
35591;DHT22;30355;50.556;10.012;2024-01-25T04:34:21;8.30;68.80
35591;DHT22;30355;50.556;10.012;2024-01-25T04:44:24;8.20;68.90
35591;DHT22;30355;50.556;10.012;2024-01-25T04:54:26;8.20;69.10
35591;DHT22;30355;50.556;10.012;2024-01-25T05:04:29;8.10;69.10
35591;DHT22;30355;50.556;10.012;2024-01-25T05:14:32;8.20;69.10
35591;DHT22;30355;50.556;10.012;2024-01-25T05:24:34;8.10;69.00
35591;DHT22;30355;50.556;10.012;2024-01-25T05:34:37;8.10;69.10
35591;DHT22;30355;50.556;10.012;2024-01-25T05:44:39;8.10;69.10
35591;DHT22;30355;50.556;10.012;2024-01-25T05:54:41;8.10;68.90
35591;DHT22;30355;50.556;10.012;2024-01-25T06:04:43;8.20;68.90
35591;DHT22;30355;50.556;10.012;2024-01-25T06:14:46;8.10;68.70
35591;DHT22;30355;50.556;10.012;2024-01-25T06:24:48;8.00;68.80
35591;DHT22;30355;50.556;10.012;2024-01-25T06:34:50;7.90;68.90
35591;DHT22;30355;50.556;10.012;2024-01-25T06:44:52;7.90;68.90
35591;DHT22;30355;50.556;10.012;2024-01-25T06:54:54;7.70;69.00
35591;DHT22;30355;50.556;10.012;2024-01-25T07:04:56;7.60;69.10
35591;DHT22;30355;50.556;10.012;2024-01-25T07:14:59;7.60;69.20
35591;DHT22;30355;50.556;10.012;2024-01-25T07:25:02;7.50;69.40
35591;DHT22;30355;50.556;10.012;2024-01-25T07:35:04;7.60;70.10
35591;DHT22;30355;50.556;10.012;2024-01-25T07:45:07;7.70;69.20
35591;DHT22;30355;50.556;10.012;2024-01-25T07:55:10;7.70;69.10
35591;DHT22;30355;50.556;10.012;2024-01-25T08:05:13;7.60;69.00
35591;DHT22;30355;50.556;10.012;2024-01-25T08:15:15;7.60;68.90
35591;DHT22;30355;50.556;10.012;2024-01-25T08:25:17;7.60;68.70
35591;DHT22;30355;50.556;10.012;2024-01-25T08:35:20;7.50;68.80
35591;DHT22;30355;50.556;10.012;2024-01-25T08:45:23;7.40;68.80
35591;DHT22;30355;50.556;10.012;2024-01-25T08:55:43;7.40;68.90
35591;DHT22;30355;50.556;10.012;2024-01-25T09:05:46;7.40;68.90
35591;DHT22;30355;50.556;10.012;2024-01-25T09:15:49;7.40;68.90
35591;DHT22;30355;50.556;10.012;2024-01-25T09:25:54;7.40;69.10
35591;DHT22;30355;50.556;10.012;2024-01-25T09:35:56;7.60;69.10
35591;DHT22;30355;50.556;10.012;2024-01-25T09:46:00;7.70;69.10
35591;DHT22;30355;50.556;10.012;2024-01-25T09:56:07;7.80;69.10
35591;DHT22;30355;50.556;10.012;2024-01-25T10:06:12;7.90;68.60
35591;DHT22;30355;50.556;10.012;2024-01-25T10:16:15;7.90;68.60
35591;DHT22;30355;50.556;10.012;2024-01-25T10:26:18;7.90;68.40
35591;DHT22;30355;50.556;10.012;2024-01-25T10:36:21;8.00;68.40
35591;DHT22;30355;50.556;10.012;2024-01-25T10:46:24;8.10;68.30
35591;DHT22;30355;50.556;10.012;2024-01-25T10:56:28;8.10;68.10
35591;DHT22;30355;50.556;10.012;2024-01-25T11:06:31;8.10;67.80
35591;DHT22;30355;50.556;10.012;2024-01-25T11:16:37;8.20;67.80
35591;DHT22;30355;50.556;10.012;2024-01-25T11:26:44;8.20;67.90
35591;DHT22;30355;50.556;10.012;2024-01-25T11:36:46;8.30;67.70
35591;DHT22;30355;50.556;10.012;2024-01-25T11:46:49;8.40;67.60
35591;DHT22;30355;50.556;10.012;2024-01-25T11:56:51;8.40;67.40
35591;DHT22;30355;50.556;10.012;2024-01-25T12:06:53;8.50;67.60
35591;DHT22;30355;50.556;10.012;2024-01-25T12:16:56;8.60;67.40
35591;DHT22;30355;50.556;10.012;2024-01-25T12:26:59;8.60;67.00
35591;DHT22;30355;50.556;10.012;2024-01-25T12:37:01;8.60;66.90
35591;DHT22;30355;50.556;10.012;2024-01-25T12:47:03;8.80;67.10
35591;DHT22;30355;50.556;10.012;2024-01-25T12:57:08;8.90;67.20
35591;DHT22;30355;50.556;10.012;2024-01-25T13:07:10;9.00;66.30
35591;DHT22;30355;50.556;10.012;2024-01-25T13:17:12;9.00;66.50
35591;DHT22;30355;50.556;10.012;2024-01-25T13:27:15;9.00;66.30
35591;DHT22;30355;50.556;10.012;2024-01-25T13:37:17;9.00;66.30
35591;DHT22;30355;50.556;10.012;2024-01-25T13:47:19;9.00;66.00
35591;DHT22;30355;50.556;10.012;2024-01-25T13:57:21;9.00;65.80
35591;DHT22;30355;50.556;10.012;2024-01-25T14:07:25;8.90;65.80
35591;DHT22;30355;50.556;10.012;2024-01-25T14:17:28;9.00;66.30
35591;DHT22;30355;50.556;10.012;2024-01-25T14:27:30;9.00;66.10
35591;DHT22;30355;50.556;10.012;2024-01-25T14:37:32;9.10;66.00
35591;DHT22;30355;50.556;10.012;2024-01-25T14:47:34;9.10;65.90
35591;DHT22;30355;50.556;10.012;2024-01-25T14:57:36;9.10;65.60
35591;DHT22;30355;50.556;10.012;2024-01-25T15:07:39;9.10;65.80
35591;DHT22;30355;50.556;10.012;2024-01-25T15:17:42;9.00;65.50
35591;DHT22;30355;50.556;10.012;2024-01-25T15:27:46;8.90;65.60
35591;DHT22;30355;50.556;10.012;2024-01-25T15:37:48;8.80;65.70
35591;DHT22;30355;50.556;10.012;2024-01-25T15:47:50;8.70;65.80
35591;DHT22;30355;50.556;10.012;2024-01-25T15:57:52;8.70;65.90
35591;DHT22;30355;50.556;10.012;2024-01-25T16:07:54;8.60;65.80
35591;DHT22;30355;50.556;10.012;2024-01-25T16:17:56;8.50;66.10
35591;DHT22;30355;50.556;10.012;2024-01-25T16:27:59;8.50;66.10
35591;DHT22;30355;50.556;10.012;2024-01-25T16:38:02;8.50;66.00
35591;DHT22;30355;50.556;10.012;2024-01-25T16:48:05;8.30;65.80
35591;DHT22;30355;50.556;10.012;2024-01-25T16:58:07;8.10;65.70
35591;DHT22;30355;50.556;10.012;2024-01-25T17:08:10;7.90;65.80
35591;DHT22;30355;50.556;10.012;2024-01-25T17:18:12;7.70;65.80
35591;DHT22;30355;50.556;10.012;2024-01-25T17:28:16;7.40;65.70
35591;DHT22;30355;50.556;10.012;2024-01-25T17:38:18;7.20;66.10
35591;DHT22;30355;50.556;10.012;2024-01-25T17:48:21;7.10;66.60
35591;DHT22;30355;50.556;10.012;2024-01-25T17:58:23;7.00;66.30
35591;DHT22;30355;50.556;10.012;2024-01-25T18:08:25;6.80;66.20
35591;DHT22;30355;50.556;10.012;2024-01-25T18:18:27;6.60;66.20
35591;DHT22;30355;50.556;10.012;2024-01-25T18:28:29;6.50;66.50
35591;DHT22;30355;50.556;10.012;2024-01-25T18:38:31;6.30;66.50
35591;DHT22;30355;50.556;10.012;2024-01-25T18:48:34;6.10;66.50
35591;DHT22;30355;50.556;10.012;2024-01-25T18:58:37;6.00;67.20
35591;DHT22;30355;50.556;10.012;2024-01-25T19:08:39;5.80;66.80
35591;DHT22;30355;50.556;10.012;2024-01-25T19:18:41;5.70;67.30
35591;DHT22;30355;50.556;10.012;2024-01-25T19:28:43;5.70;67.50
35591;DHT22;30355;50.556;10.012;2024-01-25T19:38:46;5.80;68.50
35591;DHT22;30355;50.556;10.012;2024-01-25T19:48:48;6.00;68.20
35591;DHT22;30355;50.556;10.012;2024-01-25T19:58:51;6.00;68.00
35591;DHT22;30355;50.556;10.012;2024-01-25T20:08:55;6.10;68.10
35591;DHT22;30355;50.556;10.012;2024-01-25T20:18:57;6.20;68.30
35591;DHT22;30355;50.556;10.012;2024-01-25T20:29:00;6.30;68.60
35591;DHT22;30355;50.556;10.012;2024-01-25T20:39:03;6.50;68.70
35591;DHT22;30355;50.556;10.012;2024-01-25T20:49:05;6.50;68.60
35591;DHT22;30355;50.556;10.012;2024-01-25T20:59:08;6.60;68.70
35591;DHT22;30355;50.556;10.012;2024-01-25T21:09:11;6.70;68.80
35591;DHT22;30355;50.556;10.012;2024-01-25T21:19:14;6.80;68.90
35591;DHT22;30355;50.556;10.012;2024-01-25T21:29:18;6.90;68.90
35591;DHT22;30355;50.556;10.012;2024-01-25T21:39:20;7.00;69.10
35591;DHT22;30355;50.556;10.012;2024-01-25T21:49:22;7.20;69.50
35591;DHT22;30355;50.556;10.012;2024-01-25T21:59:25;7.40;69.80
35591;DHT22;30355;50.556;10.012;2024-01-25T22:09:27;7.50;69.90
35591;DHT22;30355;50.556;10.012;2024-01-25T22:19:29;7.70;70.10
35591;DHT22;30355;50.556;10.012;2024-01-25T22:29:32;7.80;70.20
35591;DHT22;30355;50.556;10.012;2024-01-25T22:39:34;7.90;70.30
35591;DHT22;30355;50.556;10.012;2024-01-25T22:49:36;8.00;70.40
35591;DHT22;30355;50.556;10.012;2024-01-25T22:59:38;8.10;70.50
35591;DHT22;30355;50.556;10.012;2024-01-25T23:09:40;8.20;70.60
35591;DHT22;30355;50.556;10.012;2024-01-25T23:19:42;8.30;70.80
35591;DHT22;30355;50.556;10.012;2024-01-25T23:29:47;8.30;70.80
35591;DHT22;30355;50.556;10.012;2024-01-25T23:39:50;8.40;71.00
35591;DHT22;30355;50.556;10.012;2024-01-25T23:49:55;8.40;71.10
35591;DHT22;30355;50.556;10.012;2024-01-25T23:59:57;8.50;71.30
